createdAt,value
2023-04-07T00:01:33.614Z,6.53
2023-04-07T00:04:36.646Z,6.37
2023-04-07T00:07:52.454Z,5.77
2023-04-07T00:10:59.360Z,5.07
2023-04-07T00:14:02.458Z,5.47
2023-04-07T00:17:05.422Z,5.87
2023-04-07T00:20:09.334Z,6.20
2023-04-07T00:23:13.693Z,5.73
2023-04-07T00:26:16.554Z,5.97
2023-04-07T00:29:19.435Z,6.13
2023-04-07T00:32:22.463Z,6.03
2023-04-07T00:35:25.702Z,5.33
2023-04-07T00:38:30.006Z,6.17
2023-04-07T00:41:35.441Z,6.47
2023-04-07T00:44:38.347Z,6.33
2023-04-07T00:47:41.472Z,6.63
2023-04-07T00:50:45.976Z,6.80
2023-04-07T00:53:50.287Z,6.43
2023-04-07T00:56:54.357Z,6.33
2023-04-07T00:59:57.610Z,6.73
2023-04-07T01:03:07.089Z,6.10
2023-04-07T01:06:12.727Z,6.70
2023-04-07T01:09:21.112Z,5.60
2023-04-07T01:12:30.393Z,6.73
2023-04-07T01:15:36.149Z,6.20
2023-04-07T01:18:40.542Z,5.23
2023-04-07T01:21:45.649Z,6.17
2023-04-07T01:25:23.223Z,5.67
2023-04-07T01:28:42.849Z,6.07
2023-04-07T01:31:50.076Z,6.33
2023-04-07T01:34:55.019Z,6.00
2023-04-07T01:38:00.430Z,5.00
2023-04-07T01:41:04.328Z,6.37
2023-04-07T01:44:09.375Z,5.47
2023-04-07T01:47:13.823Z,5.97
2023-04-07T01:50:17.377Z,4.40
2023-04-07T01:53:21.173Z,5.03
2023-04-07T01:56:24.153Z,5.10
2023-04-07T01:59:27.054Z,4.40
2023-04-07T02:02:31.859Z,5.40
2023-04-07T02:05:37.175Z,4.83
2023-04-07T02:08:46.362Z,4.93
2023-04-07T02:11:52.050Z,4.70
2023-04-07T02:14:56.220Z,4.00
2023-04-07T02:18:02.947Z,6.20
2023-04-07T02:21:06.845Z,3.57
2023-04-07T02:24:12.363Z,4.70
2023-04-07T02:27:15.379Z,3.73
2023-04-07T02:30:18.495Z,4.07
2023-04-07T02:33:22.707Z,4.00
2023-04-07T02:36:26.459Z,4.00
2023-04-07T02:39:29.383Z,3.77
2023-04-07T02:42:32.255Z,3.83
2023-04-07T02:45:35.251Z,3.17
2023-04-07T02:48:39.462Z,3.53
2023-04-07T02:51:42.309Z,3.83
2023-04-07T02:54:45.147Z,3.43
2023-04-07T02:57:47.992Z,3.30
2023-04-07T03:00:51.038Z,3.60
2023-04-07T03:03:55.690Z,2.80
2023-04-07T03:06:59.122Z,3.00
2023-04-07T03:10:02.027Z,3.10
2023-04-07T03:13:04.904Z,3.23
2023-04-07T03:16:07.938Z,3.63
2023-04-07T03:19:12.336Z,4.00
2023-04-07T03:22:15.187Z,3.10
2023-04-07T03:25:18.113Z,3.47
2023-04-07T03:28:21.205Z,3.47
2023-04-07T03:31:24.341Z,3.40
2023-04-07T03:34:28.638Z,3.10
2023-04-07T03:37:31.487Z,4.47
2023-04-07T03:40:35.749Z,3.80
2023-04-07T03:43:38.642Z,3.50
2023-04-07T03:46:41.615Z,3.20
2023-04-07T03:49:46.285Z,3.57
2023-04-07T03:52:49.181Z,3.87
2023-04-07T03:55:52.181Z,3.10
2023-04-07T03:58:55.059Z,3.50
2023-04-07T04:01:58.065Z,3.40
2023-04-07T04:05:02.297Z,4.17
2023-04-07T04:08:05.368Z,3.60
2023-04-07T04:11:08.229Z,4.00
2023-04-07T04:14:11.091Z,3.80
2023-04-07T04:17:13.931Z,3.70
2023-04-07T04:20:18.131Z,4.30
2023-04-07T04:23:21.182Z,5.03
2023-04-07T04:26:26.143Z,4.07
2023-04-07T04:29:30.573Z,3.80
2023-04-07T04:32:34.691Z,7.03
2023-04-07T04:35:39.592Z,4.03
2023-04-07T04:38:42.491Z,4.30
2023-04-07T04:41:46.094Z,4.40
2023-04-07T04:44:48.934Z,5.23
2023-04-07T04:47:51.820Z,5.00
2023-04-07T04:50:56.112Z,4.10
2023-04-07T04:53:59.015Z,4.57
2023-04-07T04:57:01.892Z,4.70
2023-04-07T05:00:05.491Z,4.87
2023-04-07T05:03:08.541Z,4.00
2023-04-07T05:06:12.943Z,5.73
2023-04-07T05:09:15.793Z,4.87
2023-04-07T05:12:18.715Z,4.17
2023-04-07T05:15:21.550Z,4.40
2023-04-07T05:18:24.395Z,5.40
2023-04-07T05:21:28.585Z,6.40
2023-04-07T05:24:31.662Z,4.60
2023-04-07T05:27:34.566Z,5.30
2023-04-07T05:30:37.432Z,5.67
2023-04-07T05:33:40.303Z,5.17
2023-04-07T05:36:44.479Z,4.77
2023-04-07T05:39:47.325Z,5.00
2023-04-07T05:42:50.237Z,5.87
2023-04-07T05:45:53.114Z,5.77
2023-04-07T05:48:55.979Z,5.80
2023-04-07T05:52:00.254Z,4.90
2023-04-07T05:55:03.209Z,6.13
2023-04-07T05:58:06.055Z,5.30
2023-04-07T06:01:08.913Z,5.97
2023-04-07T06:04:11.814Z,6.33
2023-04-07T06:07:16.005Z,5.30
2023-04-07T06:10:18.856Z,6.00
2023-04-07T06:13:21.722Z,5.50
2023-04-07T06:16:24.826Z,6.47
2023-04-07T06:19:28.201Z,6.57
2023-04-07T06:22:32.421Z,5.60
2023-04-07T06:25:35.303Z,6.07
2023-04-07T06:28:38.256Z,5.37
2023-04-07T06:31:41.370Z,5.67
2023-04-07T06:34:44.379Z,5.50
2023-04-07T06:37:48.594Z,5.27
2023-04-07T06:40:52.619Z,6.03
2023-04-07T06:43:55.458Z,5.83
2023-04-07T06:46:58.305Z,5.17
2023-04-07T06:50:01.332Z,6.00
2023-04-07T06:53:05.549Z,6.20
2023-04-07T06:56:10.326Z,5.70
2023-04-07T06:59:13.191Z,5.77
2023-04-07T07:02:16.108Z,7.40
2023-04-07T07:05:19.214Z,6.37
2023-04-07T07:08:23.491Z,5.87
2023-04-07T07:11:27.192Z,5.47
2023-04-07T07:14:30.129Z,5.03
2023-04-07T07:17:33.069Z,5.73
2023-04-07T07:20:35.938Z,5.60
2023-04-07T07:23:40.350Z,6.57
2023-04-07T07:26:44.586Z,5.57
2023-04-07T07:29:47.563Z,6.03
2023-04-07T07:32:50.820Z,5.17
2023-04-07T07:35:54.180Z,6.90
2023-04-07T07:38:58.398Z,5.90
2023-04-07T07:42:01.480Z,4.97
2023-04-07T07:45:04.849Z,6.13
2023-04-07T07:48:07.814Z,6.60
2023-04-07T07:51:10.720Z,5.40
2023-04-07T07:54:15.269Z,6.10
2023-04-07T07:57:18.440Z,6.40
2023-04-07T08:00:21.562Z,5.93
2023-04-07T08:03:24.616Z,6.00
2023-04-07T08:06:29.244Z,5.00
2023-04-07T08:09:33.550Z,5.63
2023-04-07T08:12:36.724Z,4.57
2023-04-07T08:15:40.990Z,5.80
2023-04-07T08:18:43.824Z,5.23
2023-04-07T08:21:46.668Z,5.33
2023-04-07T08:24:50.970Z,6.10
2023-04-07T08:27:53.781Z,6.33
2023-04-07T08:30:56.614Z,6.13
2023-04-07T08:33:59.526Z,5.63
2023-04-07T08:37:02.770Z,5.60
2023-04-07T08:40:08.228Z,5.30
2023-04-07T08:43:11.432Z,5.40
2023-04-07T08:46:15.507Z,5.13
2023-04-07T08:49:19.331Z,5.33
2023-04-07T08:52:30.084Z,5.83
2023-04-07T08:55:36.340Z,5.83
2023-04-07T08:58:40.081Z,5.23
2023-04-07T09:01:43.298Z,5.83
2023-04-07T09:04:46.970Z,5.40
2023-04-07T09:07:49.915Z,5.23
2023-04-07T09:10:54.777Z,4.97
2023-04-07T09:13:58.979Z,5.27
2023-04-07T09:17:02.379Z,4.83
2023-04-07T09:20:05.978Z,6.10
2023-04-07T09:23:08.809Z,5.37
2023-04-07T09:26:24.465Z,5.63
2023-04-07T09:29:27.311Z,6.13
2023-04-07T09:32:38.659Z,5.73
2023-04-07T09:35:53.329Z,5.37
2023-04-07T09:38:56.240Z,5.93
2023-04-07T09:42:03.416Z,6.33
2023-04-07T09:45:21.108Z,5.47
2023-04-07T09:48:34.889Z,5.37
2023-04-07T09:51:38.159Z,5.07
2023-04-07T09:54:42.726Z,4.83
2023-04-07T09:57:46.270Z,5.50
2023-04-07T10:00:50.870Z,5.90
2023-04-07T10:03:56.210Z,6.27
2023-04-07T10:07:00.107Z,5.23
2023-04-07T10:10:03.772Z,4.90
2023-04-07T10:13:07.738Z,5.37
2023-04-07T10:16:12.036Z,5.20
2023-04-07T10:19:15.502Z,5.03
2023-04-07T10:22:19.674Z,4.80
2023-04-07T10:25:25.585Z,7.07
2023-04-07T10:28:31.607Z,5.63
2023-04-07T10:31:38.275Z,4.87
2023-04-07T10:35:02.550Z,5.50
2023-04-07T10:38:15.000Z,4.33
2023-04-07T10:41:34.217Z,5.30
2023-04-07T10:44:48.234Z,5.83
2023-04-07T10:48:14.272Z,4.87
2023-04-07T10:51:18.298Z,6.27
2023-04-07T10:54:22.656Z,13.30
2023-04-07T10:57:25.723Z,5.53
2023-04-07T11:00:28.669Z,5.20
2023-04-07T11:03:34.883Z,5.00
2023-04-07T11:06:48.039Z,5.17
2023-04-07T11:09:50.974Z,4.37
2023-04-07T11:13:04.996Z,5.33
2023-04-07T11:16:08.833Z,4.97
2023-04-07T11:19:13.065Z,5.27
2023-04-07T11:22:29.441Z,4.77
2023-04-07T11:25:34.663Z,5.33
2023-04-07T11:28:45.791Z,5.73
2023-04-07T11:31:49.408Z,6.10
2023-04-07T11:34:53.708Z,5.60
2023-04-07T11:38:00.768Z,5.63
2023-04-07T11:41:12.546Z,5.37
2023-04-07T11:44:15.661Z,6.10
2023-04-07T11:47:18.530Z,5.50
2023-04-07T11:50:41.637Z,6.23
2023-04-07T11:53:44.963Z,6.67
2023-04-07T11:56:49.959Z,4.63
2023-04-07T12:00:06.226Z,6.43
2023-04-07T12:03:14.714Z,7.13
2023-04-07T12:06:30.491Z,7.27
2023-04-07T12:09:36.074Z,5.60
2023-04-07T12:12:39.599Z,6.47
2023-04-07T12:15:42.451Z,5.83
2023-04-07T12:18:45.462Z,4.80
2023-04-07T12:21:49.853Z,6.07
2023-04-07T12:24:52.825Z,4.83
2023-04-07T12:27:55.804Z,5.03
2023-04-07T12:30:58.824Z,4.47
2023-04-07T12:34:01.804Z,4.43
2023-04-07T12:37:06.147Z,5.90
2023-04-07T12:40:09.760Z,5.33
2023-04-07T12:43:12.704Z,4.60
2023-04-07T12:46:15.630Z,5.53
2023-04-07T12:49:18.565Z,5.33
2023-04-07T12:52:22.821Z,5.97
2023-04-07T12:55:25.820Z,5.40
2023-04-07T12:58:28.662Z,6.17
2023-04-07T13:01:31.599Z,7.40
2023-04-07T13:04:35.227Z,5.60
2023-04-07T13:07:40.042Z,6.60
2023-04-07T13:10:43.249Z,6.27
2023-04-07T13:13:46.624Z,6.53
2023-04-07T13:16:49.724Z,5.60
2023-04-07T13:19:52.613Z,5.33
2023-04-07T13:26:03.684Z,5.30
2023-04-07T13:29:06.549Z,5.80
2023-04-07T13:32:10.400Z,5.43
2023-04-07T13:35:13.232Z,5.70
2023-04-07T13:38:17.426Z,4.60
2023-04-07T13:41:21.500Z,5.13
2023-04-07T13:44:24.402Z,4.87
2023-04-07T13:47:29.731Z,5.23
2023-04-07T13:50:32.679Z,4.30
2023-04-07T13:53:36.911Z,3.90
2023-04-07T13:56:40.382Z,3.23
2023-04-07T13:59:43.269Z,3.90
2023-04-07T14:02:47.740Z,3.77
2023-04-07T14:05:50.648Z,3.93
2023-04-07T14:08:54.926Z,4.60
2023-04-07T14:11:58.346Z,3.93
2023-04-07T14:15:01.196Z,4.33
2023-04-07T14:18:04.156Z,4.13
2023-04-07T14:21:07.185Z,6.07
2023-04-07T14:24:11.376Z,4.50
2023-04-07T14:27:16.656Z,3.60
2023-04-07T14:30:19.650Z,4.53
2023-04-07T14:33:22.994Z,4.77
2023-04-07T14:36:25.910Z,4.23
2023-04-07T14:39:30.173Z,4.77
2023-04-07T14:42:33.422Z,4.63
2023-04-07T14:45:36.606Z,4.40
2023-04-07T14:48:39.414Z,4.33
2023-04-07T14:51:42.529Z,3.80
2023-04-07T14:54:46.665Z,3.63
2023-04-07T14:57:49.601Z,4.13
2023-04-07T15:00:52.376Z,4.30
2023-04-07T15:03:55.390Z,4.53
2023-04-07T15:06:58.221Z,3.80
2023-04-07T15:10:02.364Z,4.07
2023-04-07T15:13:05.367Z,4.07
2023-04-07T15:16:10.411Z,4.13
2023-04-07T15:19:13.262Z,4.20
2023-04-07T15:22:16.021Z,4.40
2023-04-07T15:25:22.586Z,4.33
2023-04-07T15:28:25.781Z,4.07
2023-04-07T15:31:29.965Z,4.10
2023-04-07T15:34:32.996Z,6.57
2023-04-07T15:37:35.863Z,3.77
2023-04-07T15:40:40.706Z,4.37
2023-04-07T15:43:43.559Z,3.60
2023-04-07T15:46:46.466Z,4.20
2023-04-07T15:49:49.259Z,3.80
2023-04-07T15:52:52.091Z,4.20
2023-04-07T15:55:56.260Z,4.37
2023-04-07T15:58:59.185Z,3.83
2023-04-07T16:02:02.432Z,3.70
2023-04-07T16:05:06.065Z,4.60
2023-04-07T16:08:08.849Z,4.23
2023-04-07T16:11:12.987Z,4.50
2023-04-07T16:14:15.776Z,3.73
2023-04-07T16:17:18.546Z,4.27
2023-04-07T16:20:21.537Z,4.00
2023-04-07T16:23:24.471Z,4.43
2023-04-07T16:26:28.640Z,4.60
2023-04-07T16:29:31.407Z,3.90
2023-04-07T16:32:34.193Z,4.47
2023-04-07T16:35:37.078Z,4.27
2023-04-07T16:38:39.858Z,3.80
2023-04-07T16:41:43.983Z,5.00
2023-04-07T16:44:46.772Z,4.37
2023-04-07T16:47:49.592Z,5.63
2023-04-07T16:50:52.622Z,3.80
2023-04-07T16:53:55.384Z,3.53
2023-04-07T16:56:59.489Z,4.60
2023-04-07T17:00:02.261Z,3.97
2023-04-07T17:03:05.126Z,4.03
2023-04-07T17:06:08.269Z,3.97
2023-04-07T17:09:12.136Z,4.47
2023-04-07T17:12:16.347Z,4.20
2023-04-07T17:15:20.407Z,4.10
2023-04-07T17:18:23.169Z,5.73
2023-04-07T17:21:26.079Z,4.30
2023-04-07T17:24:28.842Z,4.63
2023-04-07T17:27:33.037Z,4.00
2023-04-07T17:30:37.169Z,4.50
2023-04-07T17:33:40.002Z,5.03
2023-04-07T17:36:42.780Z,4.63
2023-04-07T17:39:45.809Z,4.27
2023-04-07T17:42:49.930Z,4.07
2023-04-07T17:45:52.718Z,5.23
2023-04-07T17:48:57.519Z,4.43
2023-04-07T17:52:00.353Z,4.43
2023-04-07T17:55:03.181Z,5.03
2023-04-07T17:58:07.350Z,5.27
2023-04-07T18:01:10.687Z,5.30
2023-04-07T18:04:14.980Z,5.13
2023-04-07T18:07:17.849Z,6.37
2023-04-07T18:10:20.617Z,5.77
2023-04-07T18:13:24.851Z,4.33
2023-04-07T18:16:27.690Z,5.20
2023-04-07T18:19:30.926Z,5.20
2023-04-07T18:22:34.259Z,5.20
2023-04-07T18:25:37.096Z,5.43
2023-04-07T18:28:41.231Z,5.30
2023-04-07T18:31:44.082Z,6.27
2023-04-07T18:34:48.009Z,7.93
2023-04-07T18:37:50.808Z,5.93
2023-04-07T18:40:53.579Z,6.30
2023-04-07T18:43:57.982Z,5.60
2023-04-07T18:47:01.175Z,5.50
2023-04-07T18:50:04.984Z,7.50
2023-04-07T18:53:07.943Z,7.07
2023-04-07T18:56:10.835Z,7.27
2023-04-07T18:59:15.005Z,6.10
2023-04-07T19:02:18.021Z,6.37
2023-04-07T19:05:23.055Z,5.90
2023-04-07T19:08:28.186Z,6.23
2023-04-07T19:11:31.138Z,6.13
2023-04-07T19:14:35.426Z,7.37
2023-04-07T19:17:38.786Z,5.40
2023-04-07T19:20:41.659Z,5.57
2023-04-07T19:23:45.696Z,5.77
2023-04-07T19:26:48.504Z,5.70
2023-04-07T19:29:52.695Z,9.57
2023-04-07T19:32:56.717Z,6.20
2023-04-07T19:35:59.619Z,6.60
2023-04-07T19:39:04.373Z,6.13
2023-04-07T19:42:07.440Z,6.73
2023-04-07T19:45:12.734Z,5.90
2023-04-07T19:48:15.607Z,6.93
2023-04-07T19:51:18.364Z,8.70
2023-04-07T19:54:21.168Z,9.20
2023-04-07T19:57:24.026Z,9.87
2023-04-07T20:00:30.678Z,9.80
2023-04-07T20:03:34.850Z,8.63
2023-04-07T20:06:39.850Z,9.33
2023-04-07T20:09:42.668Z,14.23
2023-04-07T20:12:45.586Z,16.93
2023-04-07T20:15:49.722Z,19.13
2023-04-07T20:18:52.755Z,18.87
2023-04-07T20:21:56.495Z,21.47
2023-04-07T20:24:59.261Z,18.37
2023-04-07T20:28:02.031Z,16.10
2023-04-07T20:31:06.247Z,12.27
2023-04-07T20:34:09.076Z,11.40
2023-04-07T20:37:11.906Z,9.40
2023-04-07T20:40:14.695Z,8.50
2023-04-07T20:43:20.273Z,9.83
2023-04-07T20:46:24.487Z,9.83
2023-04-07T20:49:28.517Z,7.87
2023-04-07T20:52:31.360Z,9.63
2023-04-07T20:55:34.129Z,10.83
2023-04-07T20:58:37.173Z,12.23
2023-04-07T21:01:41.738Z,9.43
2023-04-07T21:04:44.821Z,12.47
2023-04-07T21:07:47.632Z,9.33
2023-04-07T21:10:51.348Z,16.40
2023-04-07T21:13:54.130Z,12.97
2023-04-07T21:16:58.366Z,13.40
2023-04-07T21:20:01.180Z,13.27
2023-04-07T21:23:04.015Z,11.30
2023-04-07T21:26:06.886Z,10.10
2023-04-07T21:29:09.640Z,9.67
2023-04-07T21:32:13.910Z,15.87
2023-04-07T21:35:17.324Z,16.23
2023-04-07T21:38:20.343Z,13.30
2023-04-07T21:41:23.120Z,15.87
2023-04-07T21:44:27.230Z,11.30
2023-04-07T21:47:31.801Z,10.00
2023-04-07T21:50:34.943Z,11.07
2023-04-07T21:53:37.891Z,10.43
2023-04-07T21:56:40.826Z,10.57
2023-04-07T21:59:43.747Z,10.13
2023-04-07T22:02:48.038Z,9.70
2023-04-07T22:05:51.490Z,10.37
2023-04-07T22:09:01.105Z,11.13
2023-04-07T22:12:05.183Z,10.93
2023-04-07T22:15:09.536Z,10.33
2023-04-07T22:18:13.810Z,10.73
2023-04-07T22:21:16.990Z,10.90
2023-04-07T22:24:20.246Z,10.00
2023-04-07T22:27:23.074Z,10.80
2023-04-07T22:30:26.317Z,10.23
2023-04-07T22:33:30.463Z,10.03
2023-04-07T22:36:34.268Z,9.17
2023-04-07T22:39:37.086Z,10.77
2023-04-07T22:42:40.666Z,10.53
2023-04-07T22:45:43.679Z,12.60
2023-04-07T22:48:49.084Z,10.43
2023-04-07T22:51:52.285Z,12.47
2023-04-07T22:54:55.395Z,10.23
2023-04-07T22:57:58.152Z,10.90
2023-04-07T23:01:01.376Z,11.30
2023-04-07T23:04:05.799Z,13.03
2023-04-07T23:07:08.619Z,11.40
2023-04-07T23:10:11.783Z,9.80
2023-04-07T23:13:15.154Z,10.93
2023-04-07T23:16:18.154Z,11.47
2023-04-07T23:19:22.383Z,10.93
2023-04-07T23:22:25.177Z,14.37
2023-04-07T23:25:28.361Z,13.00
2023-04-07T23:28:31.190Z,13.80
2023-04-07T23:31:34.138Z,10.73
2023-04-07T23:34:38.250Z,10.23
2023-04-07T23:37:41.110Z,9.87
2023-04-07T23:40:43.970Z,10.57
2023-04-07T23:43:46.726Z,9.83
2023-04-07T23:46:49.485Z,10.70
2023-04-07T23:49:53.614Z,9.80
2023-04-07T23:52:57.259Z,8.97
2023-04-07T23:56:00.045Z,9.57
2023-04-07T23:59:02.814Z,9.43
